Time;durP1;ratioP1;P1;durP2;ratioP2;P2;SDS_P1;SDS_P2;PMS_P1;PMS_P2;Temp;Humidity;BMP_temperature;BMP_pressure;BME280_temperature;BME280_humidity;BME280_pressure;Samples;Min_cycle;Max_cycle;Signal;HPM_P1;HPM_P2
2021/07/15 00:00:42;;;;;;;;;;;;;;;22.24;56.43;100657.19;5141651;27;1199;-61
2021/07/15 00:03:08;;;;;;;;;;;;;;;22.38;55.94;100660.72;5160265;27;1014;-61
2021/07/15 00:05:34;;;;;;;;;;;;;;;22.42;55.74;100660.94;5160948;27;865;-62
2021/07/15 00:07:59;;;;;;;;;;;;;;;22.27;56.34;100660.13;5160420;27;1909;-62
2021/07/15 00:10:35;;;;;;;;;;;;;;;22.22;56.46;100652.78;5160113;27;810;-60
2021/07/15 00:13:00;;;;;;;;;;;;;;;22.01;54.42;100651.66;5160393;27;996;-60
2021/07/15 00:15:26;;;;;;;;;;;;;;;22.05;56.95;100655.44;5142528;27;759;-61
2021/07/15 00:17:52;;;;;;;;;;;;;;;22.13;56.11;100649.16;5160221;27;838;-60
2021/07/15 00:20:18;;;;;;;;;;;;;;;22.26;55.77;100641.91;5160236;27;813;-60
2021/07/15 00:22:43;;;;;;;;;;;;;;;22.44;55.45;100637.31;5160198;27;751;-60
2021/07/15 00:25:10;;;;;;;;;;;;;;;22.49;55.49;100637.16;5160093;27;862;-60
2021/07/15 00:27:36;;;;;;;;;;;;;;;22.35;56.01;100641.97;5160143;27;1988;-60
2021/07/15 00:30:03;;;;;;;;;;;;;;;22.28;56.14;100641.56;5160329;27;775;-62
2021/07/15 00:32:28;;;;;;;;;;;;;;;22.09;55.02;100641.75;5140689;27;816;-62
2021/07/15 00:34:55;;;;;;;;;;;;;;;21.95;55.69;100639.88;5159977;27;775;-60
2021/07/15 00:37:21;;;;;;;;;;;;;;;22.07;57.24;100644.84;5160169;27;807;-61
2021/07/15 00:39:46;;;;;;;;;;;;;;;22.24;56.62;100643.34;5159683;27;795;-62
2021/07/15 00:42:11;;;;;;;;;;;;;;;22.37;56.09;100645.22;5159687;27;1011;-63
2021/07/15 00:44:37;;;;;;;;;;;;;;;22.34;54.28;100654.19;5159434;27;927;-62
2021/07/15 00:47:02;;;;;;;;;;;;;;;22.32;52.81;100646.16;5159519;27;1976;-62
2021/07/15 00:49:28;;;;;;;;;;;;;;;22.35;50.51;100653.88;5159651;27;782;-62
2021/07/15 00:51:53;;;;;;;;;;;;;;;22.17;49.18;100655.66;5147574;27;1169;-62
2021/07/15 00:54:19;;;;;;;;;;;;;;;22.12;48.28;100649.44;5120507;27;767;-62
2021/07/15 01:00:24;;;;;;;;;;;;;;;22.02;48.53;100633.88;5084994;28;1169;-64
2021/07/15 01:02:51;;;;;;;;;;;;;;;22.10;49.41;100633.13;5118549;27;1423;-62
2021/07/15 01:05:17;;;;;;;;;;;;;;;22.19;50.02;100636.00;5157366;27;1093;-65
2021/07/15 01:07:45;;;;;;;;;;;;;;;22.16;50.73;100636.59;5141192;27;1913;-64
2021/07/15 01:10:12;;;;;;;;;;;;;;;22.18;51.15;100635.16;5158909;27;759;-59
2021/07/15 01:12:57;;;;;;;;;;;;;;;22.27;51.29;100634.41;5139675;27;958;-59
2021/07/15 01:15:22;;;;;;;;;;;;;;;22.31;51.37;100632.63;5159584;27;798;-60
2021/07/15 01:17:48;;;;;;;;;;;;;;;22.30;51.57;100625.44;5158846;27;818;-59
2021/07/15 01:20:35;;;;;;;;;;;;;;;22.35;51.77;100633.66;5159248;27;1045;-59
2021/07/15 01:23:19;;;;;;;;;;;;;;;22.35;51.92;100630.91;5158786;27;780;-60
2021/07/15 01:25:59;;;;;;;;;;;;;;;22.40;51.86;100630.78;5158831;27;921;-61
2021/07/15 01:28:24;;;;;;;;;;;;;;;22.37;51.98;100631.38;5140878;27;1974;-61
2021/07/15 01:30:51;;;;;;;;;;;;;;;22.33;52.31;100636.75;5158450;27;795;-61
2021/07/15 01:33:17;;;;;;;;;;;;;;;22.38;52.21;100633.88;5140647;27;766;-61
2021/07/15 01:35:52;;;;;;;;;;;;;;;22.42;52.18;100633.22;5140828;27;802;-61
2021/07/15 01:38:18;;;;;;;;;;;;;;;22.37;52.21;100626.69;5158186;27;783;-62
2021/07/15 01:40:47;;;;;;;;;;;;;;;22.13;53.07;100629.75;5158632;27;1004;-60
2021/07/15 01:43:18;;;;;;;;;;;;;;;21.97;52.87;100628.50;5140445;27;783;-60
2021/07/15 01:45:43;;;;;;;;;;;;;;;21.96;53.42;100621.31;5158902;27;808;-60
2021/07/15 01:48:09;;;;;;;;;;;;;;;22.03;53.22;100616.16;5158800;27;1974;-60
2021/07/15 01:50:34;;;;;;;;;;;;;;;22.17;53.53;100619.66;5139906;27;1134;-64
2021/07/15 01:53:00;;;;;;;;;;;;;;;22.32;54.01;100617.66;5158127;27;759;-60
2021/07/15 01:55:25;;;;;;;;;;;;;;;22.48;54.31;100618.94;5140520;27;797;-64
2021/07/15 01:57:51;;;;;;;;;;;;;;;22.30;55.28;100614.38;5158628;27;949;-60
2021/07/15 02:00:16;;;;;;;;;;;;;;;22.22;55.81;100619.53;5158239;27;826;-60
2021/07/15 02:02:42;;;;;;;;;;;;;;;22.10;54.87;100616.53;5158377;27;818;-61
2021/07/15 02:05:07;;;;;;;;;;;;;;;21.88;54.84;100620.94;5139535;27;1333;-62
2021/07/15 02:07:33;;;;;;;;;;;;;;;21.87;57.79;100618.47;5139628;27;1909;-61
2021/07/15 02:09:58;;;;;;;;;;;;;;;22.07;55.71;100622.69;5158822;27;874;-60
2021/07/15 02:12:24;;;;;;;;;;;;;;;22.05;53.25;100627.75;5139360;27;933;-60
2021/07/15 02:14:51;;;;;;;;;;;;;;;22.14;50.75;100623.06;5139676;27;830;-60
2021/07/15 02:17:16;;;;;;;;;;;;;;;22.01;49.46;100626.72;5140172;27;767;-61
2021/07/15 02:19:42;;;;;;;;;;;;;;;21.93;49.12;100630.25;5158159;27;855;-61
2021/07/15 02:22:10;;;;;;;;;;;;;;;22.04;49.43;100623.31;5139498;27;727;-61
2021/07/15 02:24:36;;;;;;;;;;;;;;;22.05;50.14;100627.75;5158154;27;770;-61
2021/07/15 02:27:01;;;;;;;;;;;;;;;22.16;50.58;100623.59;5157627;27;1921;-61
2021/07/15 02:29:27;;;;;;;;;;;;;;;22.11;51.32;100632.00;5158028;27;861;-61
2021/07/15 02:31:54;;;;;;;;;;;;;;;22.26;51.41;100624.44;5157585;27;791;-61
2021/07/15 02:34:39;;;;;;;;;;;;;;;22.22;51.77;100630.63;5157906;27;782;-61
2021/07/15 02:37:05;;;;;;;;;;;;;;;22.22;52.18;100627.03;5157243;27;1166;-61
2021/07/15 02:39:31;;;;;;;;;;;;;;;22.41;51.69;100618.53;5139701;27;795;-61
2021/07/15 02:41:56;;;;;;;;;;;;;;;22.36;52.06;100624.22;5138839;27;1024;-61
2021/07/15 02:44:22;;;;;;;;;;;;;;;22.38;52.10;100617.25;5158035;27;796;-61
2021/07/15 02:46:47;;;;;;;;;;;;;;;22.39;52.16;100623.59;5139512;27;1988;-61
2021/07/15 02:49:13;;;;;;;;;;;;;;;22.48;51.87;100624.47;5158194;27;830;-61
2021/07/15 02:51:38;;;;;;;;;;;;;;;22.47;51.91;100625.59;5157686;27;1090;-61
2021/07/15 02:54:04;;;;;;;;;;;;;;;22.47;52.19;100625.59;5157462;27;839;-61
2021/07/15 02:56:32;;;;;;;;;;;;;;;22.49;52.05;100623.31;5157534;27;1043;-61
2021/07/15 02:59:17;;;;;;;;;;;;;;;22.55;52.04;100610.13;5157957;27;874;-60
2021/07/15 03:01:47;;;;;;;;;;;;;;;22.49;52.18;100612.22;5157405;27;818;-61
2021/07/15 03:04:29;;;;;;;;;;;;;;;22.18;53.24;100612.19;5157840;27;1287;-60
2021/07/15 03:06:54;;;;;;;;;;;;;;;22.00;53.45;100616.78;5139346;27;1914;-61
2021/07/15 03:09:26;;;;;;;;;;;;;;;21.73;53.99;100606.63;5143073;27;794;-61
2021/07/15 03:11:59;;;;;;;;;;;;;;;21.88;54.74;100612.63;5143122;27;942;-61
2021/07/15 03:14:32;;;;;;;;;;;;;;;22.12;54.89;100618.97;5143812;27;791;-62
2021/07/15 03:16:58;;;;;;;;;;;;;;;22.29;54.99;100613.56;5143305;27;763;-58
2021/07/15 03:19:29;;;;;;;;;;;;;;;22.37;55.35;100612.00;5161923;27;827;-61
2021/07/15 03:21:55;;;;;;;;;;;;;;;22.26;56.02;100613.38;5160772;27;791;-61
2021/07/15 03:24:21;;;;;;;;;;;;;;;22.17;56.51;100616.88;5161650;27;775;-61
2021/07/15 03:26:47;;;;;;;;;;;;;;;21.94;55.17;100612.50;5143064;27;1918;-61
2021/07/15 03:29:13;;;;;;;;;;;;;;;21.90;57.16;100617.84;5160990;27;755;-61
2021/07/15 03:31:39;;;;;;;;;;;;;;;22.10;57.93;100616.53;5161521;27;790;-61
2021/07/15 03:34:04;;;;;;;;;;;;;;;22.22;57.64;100618.72;5161161;27;779;-60
2021/07/15 03:36:32;;;;;;;;;;;;;;;22.35;57.22;100617.84;5160834;27;827;-60
2021/07/15 03:38:57;;;;;;;;;;;;;;;22.38;57.00;100619.19;5125755;27;771;-62
2021/07/15 03:41:23;;;;;;;;;;;;;;;22.27;57.65;100615.00;5125649;27;1179;-62
2021/07/15 03:43:48;;;;;;;;;;;;;;;22.14;56.96;100619.50;5141978;27;815;-62
2021/07/15 03:46:14;;;;;;;;;;;;;;;21.88;54.76;100620.94;5142915;27;855;-66
2021/07/15 03:48:40;;;;;;;;;;;;;;;21.98;58.10;100619.88;5140724;27;1968;-65
2021/07/15 03:51:06;;;;;;;;;;;;;;;22.14;59.22;100620.28;5142074;27;932;-63
2021/07/15 03:53:32;;;;;;;;;;;;;;;22.27;58.47;100617.78;5160562;27;827;-66
2021/07/15 03:55:58;;;;;;;;;;;;;;;22.51;56.68;100618.28;5142349;27;961;-64
2021/07/15 03:58:23;;;;;;;;;;;;;;;22.37;55.46;100617.53;5160488;27;822;-64
2021/07/15 04:00:49;;;;;;;;;;;;;;;22.13;54.09;100624.22;5146666;27;1323;-61
2021/07/15 04:03:16;;;;;;;;;;;;;;;21.86;52.38;100628.72;5144547;27;1375;-64
2021/07/15 04:05:41;;;;;;;;;;;;;;;21.63;52.01;100613.22;5146767;27;817;-60
2021/07/15 04:08:07;;;;;;;;;;;;;;;21.88;50.49;100632.00;5181710;27;1909;-66
2021/07/15 04:10:32;;;;;;;;;;;;;;;22.02;50.70;100634.72;5163234;27;767;-64
2021/07/15 04:12:58;;;;;;;;;;;;;;;22.01;51.84;100635.03;5141998;27;1009;-61
2021/07/15 04:15:30;;;;;;;;;;;;;;;22.11;52.52;100640.31;5141941;27;862;-61
2021/07/15 04:17:56;;;;;;;;;;;;;;;22.25;52.95;100633.91;5160211;27;806;-59
2021/07/15 04:20:23;;;;;;;;;;;;;;;22.32;53.38;100635.09;5141121;27;803;-65
2021/07/15 04:22:50;;;;;;;;;;;;;;;22.36;53.79;100633.34;5141451;27;751;-63
2021/07/15 04:25:16;;;;;;;;;;;;;;;22.53;53.60;100638.16;5154695;27;798;-64
2021/07/15 04:27:43;;;;;;;;;;;;;;;22.32;54.66;100646.16;5145010;27;1905;-64
2021/07/15 04:30:09;;;;;;;;;;;;;;;22.19;55.23;100642.34;5141561;27;834;-64
2021/07/15 04:33:00;;;;;;;;;;;;;;;22.04;54.38;100645.47;5160291;27;822;-64
2021/07/15 04:35:26;;;;;;;;;;;;;;;21.86;55.88;100642.56;5155819;27;1020;-67
2021/07/15 04:37:52;;;;;;;;;;;;;;;22.11;56.74;100640.31;5141860;27;981;-60
2021/07/15 04:40:18;;;;;;;;;;;;;;;22.21;56.64;100645.59;5141232;27;966;-64
2021/07/15 04:42:44;;;;;;;;;;;;;;;22.34;56.57;100643.09;5160080;27;953;-63
2021/07/15 04:45:10;;;;;;;;;;;;;;;22.33;56.91;100649.75;5159531;27;807;-64
2021/07/15 04:47:36;;;;;;;;;;;;;;;22.34;57.25;100648.63;5160446;27;1966;-59
2021/07/15 04:50:01;;;;;;;;;;;;;;;22.15;56.35;100643.28;5160477;27;767;-65
2021/07/15 04:52:27;;;;;;;;;;;;;;;21.83;55.44;100640.41;5140645;27;1125;-64
2021/07/15 04:54:52;;;;;;;;;;;;;;;21.92;58.90;100637.72;5141396;27;811;-64
2021/07/15 04:57:18;;;;;;;;;;;;;;;22.08;59.14;100640.94;5141103;27;989;-67
2021/07/15 04:59:43;;;;;;;;;;;;;;;22.20;58.71;100655.06;5140682;27;784;-63
2021/07/15 05:02:09;;;;;;;;;;;;;;;22.32;58.22;100648.94;5141298;27;739;-64
2021/07/15 05:04:34;;;;;;;;;;;;;;;22.30;58.39;100651.22;5140138;27;1032;-61
2021/07/15 05:07:00;;;;;;;;;;;;;;;22.27;57.62;100645.47;5159061;27;1906;-61
2021/07/15 05:09:25;;;;;;;;;;;;;;;21.85;55.88;100643.72;5159907;27;850;-63
2021/07/15 05:11:50;;;;;;;;;;;;;;;21.96;59.08;100643.47;5159089;27;969;-62
2021/07/15 05:14:16;;;;;;;;;;;;;;;22.04;58.80;100651.00;5158907;27;740;-62
2021/07/15 05:16:41;;;;;;;;;;;;;;;22.17;59.59;100639.03;5159232;27;881;-63
2021/07/15 05:19:07;;;;;;;;;;;;;;;22.38;59.40;100644.09;5159305;27;850;-65
2021/07/15 05:21:32;;;;;;;;;;;;;;;22.44;59.89;100642.84;5158954;27;823;-65
2021/07/15 05:23:57;;;;;;;;;;;;;;;22.49;59.43;100642.69;5159298;27;787;-65
2021/07/15 05:26:23;;;;;;;;;;;;;;;22.22;56.24;100641.69;5140462;27;1909;-65
2021/07/15 05:28:50;;;;;;;;;;;;;;;22.10;55.74;100643.41;5158939;27;858;-66
2021/07/15 05:31:15;;;;;;;;;;;;;;;22.02;57.12;100647.72;5158429;27;859;-68
2021/07/15 05:33:41;;;;;;;;;;;;;;;21.97;55.96;100639.56;5140011;27;816;-66
2021/07/15 05:36:08;;;;;;;;;;;;;;;22.01;53.37;100640.56;5158605;27;779;-66
2021/07/15 05:38:34;;;;;;;;;;;;;;;22.12;51.11;100647.50;5171314;27;1552;-66
2021/07/15 05:40:59;;;;;;;;;;;;;;;22.05;50.06;100641.59;5167579;27;825;-66
2021/07/15 05:43:25;;;;;;;;;;;;;;;22.07;50.99;100644.84;5158302;27;767;-64
2021/07/15 05:45:50;;;;;;;;;;;;;;;22.20;53.79;100638.44;5158808;27;739;-64
2021/07/15 05:48:15;;;;;;;;;;;;;;;22.36;56.04;100646.41;5174459;27;1982;-65
2021/07/15 05:50:41;;;;;;;;;;;;;;;22.34;57.40;100649.47;5177272;27;1172;-65
2021/07/15 05:53:06;;;;;;;;;;;;;;;22.33;59.29;100653.38;5158648;27;798;-66
2021/07/15 05:55:32;;;;;;;;;;;;;;;22.37;58.06;100643.31;5139859;27;759;-64
2021/07/15 05:57:57;;;;;;;;;;;;;;;22.11;56.41;100654.16;5157999;27;960;-65
2021/07/15 06:00:23;;;;;;;;;;;;;;;22.05;58.00;100641.59;5158587;27;759;-66
2021/07/15 06:02:48;;;;;;;;;;;;;;;22.13;61.45;100640.84;5139225;27;1078;-65
2021/07/15 06:05:14;;;;;;;;;;;;;;;22.34;62.81;100649.47;5157998;27;1030;-65
2021/07/15 06:07:40;;;;;;;;;;;;;;;22.43;62.53;100652.31;5140535;27;1905;-67
2021/07/15 06:10:07;;;;;;;;;;;;;;;22.53;62.37;100646.47;5122671;27;979;-66
2021/07/15 06:12:32;;;;;;;;;;;;;;;22.51;61.59;100648.75;5158192;27;1016;-66
2021/07/15 06:14:58;;;;;;;;;;;;;;;22.14;55.99;100639.69;5139264;27;783;-66
2021/07/15 06:17:23;;;;;;;;;;;;;;;21.92;55.31;100634.94;5159060;27;787;-66
2021/07/15 06:19:51;;;;;;;;;;;;;;;21.83;55.51;100645.16;5158296;27;811;-65
2021/07/15 06:22:16;;;;;;;;;;;;;;;21.92;54.68;100647.97;5158001;27;807;-66
2021/07/15 06:24:42;;;;;;;;;;;;;;;22.03;53.48;100641.06;5139755;27;943;-66
2021/07/15 06:27:07;;;;;;;;;;;;;;;22.15;53.55;100641.31;5157889;27;1918;-65
2021/07/15 06:29:32;;;;;;;;;;;;;;;22.17;54.17;100635.47;5158256;27;759;-66
2021/07/15 06:31:58;;;;;;;;;;;;;;;22.30;54.26;100631.81;5158442;27;929;-66
2021/07/15 06:34:23;;;;;;;;;;;;;;;22.37;54.26;100634.16;5157833;27;807;-66
2021/07/15 06:36:49;;;;;;;;;;;;;;;22.43;54.50;100627.38;5122399;27;760;-67
2021/07/15 06:39:14;;;;;;;;;;;;;;;22.37;54.82;100634.16;5158478;27;807;-66
2021/07/15 06:41:40;;;;;;;;;;;;;;;22.30;55.45;100625.44;5138075;27;984;-67
2021/07/15 06:44:05;;;;;;;;;;;;;;;22.10;54.68;100627.59;5139279;27;823;-62
2021/07/15 06:46:33;;;;;;;;;;;;;;;21.83;54.26;100621.03;5139467;27;1921;-65
2021/07/15 06:48:58;;;;;;;;;;;;;;;21.92;57.12;100620.31;5157690;27;767;-67
2021/07/15 06:51:24;;;;;;;;;;;;;;;22.10;57.81;100612.94;5131532;28;1192;-64
2021/07/15 06:53:50;;;;;;;;;;;;;;;22.32;58.91;100620.44;5137501;28;855;-68
2021/07/15 06:56:16;;;;;;;;;;;;;;;22.47;59.20;100619.22;5136826;27;1017;-67
2021/07/15 06:58:41;;;;;;;;;;;;;;;22.51;60.39;100614.69;5137449;28;787;-65
2021/07/15 07:01:09;;;;;;;;;;;;;;;22.41;57.13;100610.22;5137301;28;807;-67
2021/07/15 07:03:34;;;;;;;;;;;;;;;21.97;54.08;100611.88;5140628;27;1152;-67
2021/07/15 07:06:00;;;;;;;;;;;;;;;21.94;56.59;100605.00;5157927;27;835;-67
2021/07/15 07:08:25;;;;;;;;;;;;;;;21.99;56.53;100604.91;5138939;27;1905;-63
2021/07/15 07:10:51;;;;;;;;;;;;;;;22.01;54.97;100601.81;5157196;27;992;-65
2021/07/15 07:13:16;;;;;;;;;;;;;;;22.04;52.97;100606.72;5157698;27;775;-67
2021/07/15 07:15:42;;;;;;;;;;;;;;;22.09;51.35;100597.44;5139074;27;870;-67
2021/07/15 07:18:07;;;;;;;;;;;;;;;22.09;51.18;100601.06;5157804;27;798;-65
2021/07/15 07:20:33;;;;;;;;;;;;;;;22.20;53.74;100601.59;5156577;27;967;-64
2021/07/15 07:22:59;;;;;;;;;;;;;;;22.39;55.93;100606.97;5158012;27;791;-66
2021/07/15 07:25:24;;;;;;;;;;;;;;;22.45;57.80;100600.16;5157492;27;751;-66
2021/07/15 07:27:49;;;;;;;;;;;;;;;22.49;59.55;100601.16;5157045;27;1914;-65
2021/07/15 07:30:16;;;;;;;;;;;;;;;22.43;58.01;100602.44;5157870;27;771;-67
2021/07/15 07:32:42;;;;;;;;;;;;;;;21.98;54.56;100596.88;5139387;27;799;-68
2021/07/15 07:35:07;;;;;;;;;;;;;;;21.98;56.18;100602.41;5157584;27;827;-67
2021/07/15 07:37:33;;;;;;;;;;;;;;;22.01;56.52;100596.28;5138716;27;809;-67
2021/07/15 07:39:59;;;;;;;;;;;;;;;21.99;55.64;100588.28;5157553;27;735;-65
2021/07/15 07:42:25;;;;;;;;;;;;;;;22.07;53.45;100592.25;5157252;27;965;-63
2021/07/15 07:44:50;;;;;;;;;;;;;;;22.02;51.75;100590.41;5158306;27;760;-65
2021/07/15 07:47:15;;;;;;;;;;;;;;;22.10;51.69;100590.78;5139084;27;1910;-61
2021/07/15 07:49:41;;;;;;;;;;;;;;;22.14;54.11;100606.44;5157316;27;759;-66
2021/07/15 07:52:06;;;;;;;;;;;;;;;22.37;56.23;100603.69;5138406;27;1134;-66
2021/07/15 07:54:32;;;;;;;;;;;;;;;22.47;58.03;100597.88;5160325;27;831;-67
2021/07/15 07:56:57;;;;;;;;;;;;;;;22.51;59.40;100601.66;5160662;27;953;-67
2021/07/15 07:59:23;;;;;;;;;;;;;;;22.30;58.36;100598.59;5142401;27;890;-68
2021/07/15 08:01:48;;;;;;;;;;;;;;;22.09;55.67;100603.00;5161284;27;882;-66
2021/07/15 08:04:14;;;;;;;;;;;;;;;21.97;58.11;100600.81;5160679;27;1014;-61
2021/07/15 08:06:41;;;;;;;;;;;;;;;22.03;59.49;100614.22;5160792;27;1937;-66
2021/07/15 08:09:08;;;;;;;;;;;;;;;22.07;59.62;100606.09;5161198;27;794;-64
2021/07/15 08:11:33;;;;;;;;;;;;;;;22.17;58.50;100600.28;5124162;27;1284;-66
2021/07/15 08:13:59;;;;;;;;;;;;;;;22.32;56.79;100601.03;5160905;27;763;-64
2021/07/15 08:16:24;;;;;;;;;;;;;;;22.37;55.95;100603.69;5161008;27;767;-64
2021/07/15 08:18:50;;;;;;;;;;;;;;;22.41;55.48;100604.69;5141252;27;886;-64
2021/07/15 08:21:19;;;;;;;;;;;;;;;22.49;54.65;100601.16;5160706;27;779;-64
2021/07/15 08:23:44;;;;;;;;;;;;;;;22.37;54.72;100600.91;5142478;27;807;-65
2021/07/15 08:26:10;;;;;;;;;;;;;;;22.30;54.78;100600.53;5160046;27;961;-64
2021/07/15 08:28:35;;;;;;;;;;;;;;;22.15;53.59;100585.94;5142079;27;1918;-61
2021/07/15 08:31:01;;;;;;;;;;;;;;;21.71;54.42;100595.88;5160562;27;807;-65
2021/07/15 08:33:27;;;;;;;;;;;;;;;21.86;55.71;100601.03;5124347;27;1212;-62
2021/07/15 08:35:52;;;;;;;;;;;;;;;22.15;54.47;100597.03;5160672;27;755;-63
2021/07/15 08:38:19;;;;;;;;;;;;;;;22.28;53.78;100589.75;5160482;27;858;-62
2021/07/15 08:40:45;;;;;;;;;;;;;;;22.32;53.49;100596.31;5159752;27;1016;-60
2021/07/15 08:43:10;;;;;;;;;;;;;;;22.39;53.19;100595.88;5160200;27;858;-61
2021/07/15 08:45:36;;;;;;;;;;;;;;;22.41;53.16;100603.88;5160827;27;794;-63
2021/07/15 08:48:02;;;;;;;;;;;;;;;22.43;53.12;100599.66;5159544;27;1917;-60
2021/07/15 08:50:28;;;;;;;;;;;;;;;22.31;53.40;100593.84;5160397;27;1145;-59
2021/07/15 08:52:53;;;;;;;;;;;;;;;22.27;53.65;100587.31;5142050;27;771;-61
2021/07/15 08:58:07;;;;;;;;;;;;;;;22.01;54.42;100585.19;5100773;27;1248;-60
2021/07/15 09:00:33;;;;;;;;;;;;;;;22.13;53.95;100592.91;5121514;27;739;-61
2021/07/15 09:02:58;;;;;;;;;;;;;;;22.24;53.68;100582.41;5138952;27;851;-61
2021/07/15 09:05:24;;;;;;;;;;;;;;;22.34;53.54;100594.06;5138491;27;1160;-61
2021/07/15 09:07:50;;;;;;;;;;;;;;;22.43;53.68;100580.25;5120784;27;1972;-60
2021/07/15 09:10:15;;;;;;;;;;;;;;;22.45;53.60;100588.25;5138360;27;834;-60
2021/07/15 09:12:41;;;;;;;;;;;;;;;22.33;54.13;100588.78;5158714;27;1521;-60
2021/07/15 09:15:07;;;;;;;;;;;;;;;22.31;54.26;100574.47;5162509;27;842;-61
2021/07/15 09:17:33;;;;;;;;;;;;;;;21.86;52.88;100578.09;5180243;27;835;-60
2021/07/15 09:19:59;;;;;;;;;;;;;;;21.96;55.82;100583.34;5180546;27;827;-60
2021/07/15 09:22:24;;;;;;;;;;;;;;;22.22;56.51;100585.50;5161837;27;820;-60
2021/07/15 09:24:51;;;;;;;;;;;;;;;22.43;57.21;100580.25;5180140;27;817;-60
2021/07/15 09:27:18;;;;;;;;;;;;;;;22.49;58.65;100578.97;5161456;27;1921;-59
2021/07/15 09:29:44;;;;;;;;;;;;;;;22.63;59.48;100578.88;5140772;27;853;-60
2021/07/15 09:32:13;;;;;;;;;;;;;;;22.32;56.78;100584.41;5159145;27;751;-61
2021/07/15 09:34:38;;;;;;;;;;;;;;;22.01;54.32;100576.91;5159238;27;790;-61
2021/07/15 09:37:10;;;;;;;;;;;;;;;22.04;56.18;100584.56;5159248;27;743;-59
2021/07/15 09:39:39;;;;;;;;;;;;;;;22.04;55.98;100574.28;5158801;27;794;-61
2021/07/15 09:42:04;;;;;;;;;;;;;;;22.10;54.15;100574.19;5140022;27;990;-58
2021/07/15 09:44:30;;;;;;;;;;;;;;;22.16;52.14;100573.75;5159533;27;798;-61
2021/07/15 09:46:56;;;;;;;;;;;;;;;22.11;50.65;100571.09;5158847;27;1980;-59
2021/07/15 09:49:29;;;;;;;;;;;;;;;22.12;50.86;100572.72;5158913;27;795;-60
2021/07/15 09:51:57;;;;;;;;;;;;;;;22.25;53.29;100567.44;5158880;27;1138;-62
2021/07/15 09:54:23;;;;;;;;;;;;;;;22.41;56.19;100565.91;5158759;27;795;-60
2021/07/15 09:56:48;;;;;;;;;;;;;;;22.45;58.23;100568.88;5158545;27;897;-62
2021/07/15 09:59:14;;;;;;;;;;;;;;;22.56;59.35;100568.25;5158644;27;882;-60
2021/07/15 10:01:43;;;;;;;;;;;;;;;22.43;57.29;100563.63;5158325;27;786;-60
2021/07/15 10:04:08;;;;;;;;;;;;;;;22.10;53.11;100555.59;5122472;27;1129;-64
2021/07/15 10:06:43;;;;;;;;;;;;;;;22.02;56.54;100565.50;5140602;27;1917;-67
2021/07/15 10:09:18;;;;;;;;;;;;;;;22.09;56.32;100562.28;5139163;27;863;-66
2021/07/15 10:11:43;;;;;;;;;;;;;;;22.05;55.15;100558.53;5139591;27;1187;-63
2021/07/15 10:14:09;;;;;;;;;;;;;;;22.08;52.72;100563.41;5139863;27;826;-65
2021/07/15 10:16:34;;;;;;;;;;;;;;;22.12;51.15;100564.44;5122782;27;855;-64
2021/07/15 10:19:00;;;;;;;;;;;;;;;22.11;49.93;100562.78;5139806;27;847;-62
2021/07/15 10:21:30;;;;;;;;;;;;;;;22.08;49.19;100557.03;5140425;27;779;-58
2021/07/15 10:23:55;;;;;;;;;;;;;;;22.15;49.58;100569.31;5158388;27;810;-67
2021/07/15 10:26:21;;;;;;;;;;;;;;;22.15;50.76;100563.78;5157950;27;1067;-64
2021/07/15 10:28:47;;;;;;;;;;;;;;;22.37;51.35;100570.44;5158430;27;1905;-68
2021/07/15 10:31:13;;;;;;;;;;;;;;;22.35;52.56;100564.41;5160514;27;1505;-63
2021/07/15 10:33:38;;;;;;;;;;;;;;;22.41;52.95;100565.91;5174597;27;787;-67
2021/07/15 10:36:04;;;;;;;;;;;;;;;22.45;53.66;100561.34;5139839;27;836;-60
2021/07/15 10:38:30;;;;;;;;;;;;;;;22.27;54.71;100557.66;5138595;27;914;-62
2021/07/15 10:40:56;;;;;;;;;;;;;;;22.23;55.41;100559.41;5157908;27;993;-64
2021/07/15 10:43:21;;;;;;;;;;;;;;;22.02;54.06;100564.66;5158309;27;747;-66
2021/07/15 10:45:47;;;;;;;;;;;;;;;21.88;55.80;100565.56;5132501;27;1068;-63
2021/07/15 10:48:13;;;;;;;;;;;;;;;22.12;56.45;100558.06;5146813;27;1913;-64
2021/07/15 10:50:39;;;;;;;;;;;;;;;22.20;56.04;100569.19;5120399;27;1029;-65
2021/07/15 10:53:05;;;;;;;;;;;;;;;22.36;55.54;100561.31;5155593;27;896;-67
2021/07/15 10:55:30;;;;;;;;;;;;;;;22.42;55.43;100570.31;5157415;27;824;-65
2021/07/15 10:57:55;;;;;;;;;;;;;;;22.52;55.19;100558.13;5138905;27;961;-66
2021/07/15 11:00:22;;;;;;;;;;;;;;;22.40;55.87;100564.28;5157243;27;742;-64
2021/07/15 11:03:04;;;;;;;;;;;;;;;22.32;56.06;100560.28;5157386;27;829;-63
2021/07/15 11:05:29;;;;;;;;;;;;;;;21.86;53.57;100556.75;5139062;27;1391;-61
2021/07/15 11:07:55;;;;;;;;;;;;;;;22.00;56.78;100558.63;5156956;27;1913;-62
2021/07/15 11:10:21;;;;;;;;;;;;;;;22.13;56.95;100555.00;5157211;27;922;-66
2021/07/15 11:12:57;;;;;;;;;;;;;;;22.27;56.54;100560.41;5157114;27;956;-64
2021/07/15 11:15:22;;;;;;;;;;;;;;;22.38;55.99;100555.47;5157316;27;750;-63
2021/07/15 11:17:50;;;;;;;;;;;;;;;22.38;56.01;100548.00;5157439;27;738;-63
2021/07/15 11:20:34;;;;;;;;;;;;;;;22.34;55.96;100549.75;5157620;27;837;-63
2021/07/15 11:23:00;;;;;;;;;;;;;;;21.85;53.68;100546.00;5156603;27;762;-64
2021/07/15 11:25:28;;;;;;;;;;;;;;;22.01;56.26;100546.44;5157892;27;762;-62
2021/07/15 11:27:59;;;;;;;;;;;;;;;22.17;57.22;100549.63;5157191;27;1987;-64
2021/07/15 11:30:34;;;;;;;;;;;;;;;22.26;56.63;100547.72;5142407;27;1309;-65
2021/07/15 11:36:07;;;;;;;;;;;;;;;22.39;56.09;100546.03;5161031;27;762;-64
2021/07/15 11:38:34;;;;;;;;;;;;;;;22.42;56.04;100542.59;5150338;27;1005;-62
2021/07/15 11:41:04;;;;;;;;;;;;;;;22.07;54.24;100544.34;5125223;27;1140;-63
2021/07/15 11:43:32;;;;;;;;;;;;;;;21.90;54.99;100534.00;5160515;27;763;-63
2021/07/15 11:46:10;;;;;;;;;;;;;;;22.09;57.45;100533.78;5160843;27;877;-65
2021/07/15 11:48:46;;;;;;;;;;;;;;;22.12;57.42;100536.72;5142538;27;1980;-63
2021/07/15 11:51:25;;;;;;;;;;;;;;;22.34;56.62;100537.84;5160593;27;1118;-63
2021/07/15 11:54:09;;;;;;;;;;;;;;;22.28;56.65;100536.31;5160074;27;814;-64
2021/07/15 11:56:34;;;;;;;;;;;;;;;22.28;56.74;100533.56;5160346;27;921;-63
2021/07/15 11:59:00;;;;;;;;;;;;;;;22.02;54.60;100531.44;5161408;27;820;-64
2021/07/15 12:01:32;;;;;;;;;;;;;;;21.96;56.30;100532.72;5160225;27;822;-64
2021/07/15 12:04:03;;;;;;;;;;;;;;;22.19;57.29;100541.81;5160130;27;1025;-64
2021/07/15 12:06:29;;;;;;;;;;;;;;;22.27;56.86;100532.72;5160964;27;783;-64
2021/07/15 12:09:02;;;;;;;;;;;;;;;22.39;56.32;100532.97;5159911;27;1978;-63
2021/07/15 12:11:27;;;;;;;;;;;;;;;22.42;56.50;100523.22;5159930;27;976;-64
2021/07/15 12:13:53;;;;;;;;;;;;;;;22.47;56.29;100531.41;5142193;27;814;-64
2021/07/15 12:16:19;;;;;;;;;;;;;;;22.32;55.34;100526.25;5160438;27;819;-63
2021/07/15 12:18:45;;;;;;;;;;;;;;;21.98;53.83;100519.38;5160529;27;742;-63
2021/07/15 12:21:12;;;;;;;;;;;;;;;22.06;57.29;100521.38;5159996;27;746;-64
2021/07/15 12:23:40;;;;;;;;;;;;;;;22.25;57.23;100518.38;5159705;27;837;-63
2021/07/15 12:26:06;;;;;;;;;;;;;;;22.43;56.63;100519.31;5159408;27;1008;-64
2021/07/15 12:28:31;;;;;;;;;;;;;;;22.40;56.44;100522.72;5141831;27;1913;-63
2021/07/15 12:31:01;;;;;;;;;;;;;;;22.41;56.56;100515.22;5156508;27;1584;-63
2021/07/15 12:33:45;;;;;;;;;;;;;;;22.26;55.16;100506.19;5160080;27;773;-62
2021/07/15 12:36:11;;;;;;;;;;;;;;;21.83;54.13;100507.56;5118302;28;751;-63
2021/07/15 12:38:37;;;;;;;;;;;;;;;21.98;57.64;100508.28;5118367;28;861;-62
2021/07/15 12:41:23;;;;;;;;;;;;;;;22.13;57.88;100505.16;5120163;27;970;-69
2021/07/15 12:43:50;;;;;;;;;;;;;;;22.38;56.79;100502.81;5124548;27;1758;-63
2021/07/15 12:46:25;;;;;;;;;;;;;;;22.41;56.54;100504.16;5120393;27;933;-64
2021/07/15 12:48:55;;;;;;;;;;;;;;;22.40;56.64;100503.34;5138881;27;1980;-64
2021/07/15 12:51:22;;;;;;;;;;;;;;;22.23;55.45;100495.72;5138999;27;1153;-63
2021/07/15 12:53:48;;;;;;;;;;;;;;;21.94;53.67;100502.59;5139095;27;865;-62
2021/07/15 12:56:23;;;;;;;;;;;;;;;22.02;57.47;100504.59;5115149;28;965;-64
2021/07/15 12:59:15;;;;;;;;;;;;;;;22.16;57.57;100500.91;5099909;28;776;-64
2021/07/15 13:01:44;;;;;;;;;;;;;;;22.40;56.65;100506.09;5113858;28;1171;-64